createdAt,value
2023-11-25T00:01:41.229Z,96615.02
2023-11-25T00:06:45.911Z,96614.55
2023-11-25T00:11:49.301Z,96607.06
2023-11-25T00:16:52.470Z,96608.86
2023-11-25T00:21:54.852Z,96617.34
2023-11-25T00:26:57.480Z,96617.48
2023-11-25T00:32:02.279Z,96605.23
2023-11-25T00:37:09.591Z,96598.39
2023-11-25T00:42:12.569Z,96599.90
2023-11-25T00:47:15.123Z,96600.20
2023-11-25T00:52:20.246Z,96600.14
2023-11-25T00:57:23.003Z,96598.25
2023-11-25T01:02:37.372Z,96595.55
2023-11-25T01:07:42.576Z,96592.43
2023-11-25T01:12:44.902Z,96592.34
2023-11-25T01:17:47.357Z,96597.50
2023-11-25T01:22:52.343Z,96600.92
2023-11-25T01:27:59.712Z,96606.34
2023-11-25T01:33:04.115Z,96604.05
2023-11-25T01:38:07.250Z,96602.96
2023-11-25T01:43:12.513Z,96597.72
2023-11-25T01:48:16.029Z,96598.10
2023-11-25T01:53:22.302Z,96599.85
2023-11-25T01:58:33.779Z,96602.14
2023-11-25T02:03:37.494Z,96601.11
2023-11-25T02:08:40.390Z,96597.42
2023-11-25T02:13:42.684Z,96605.18
2023-11-25T02:18:45.688Z,96604.20
2023-11-25T02:24:49.241Z,96601.48
2023-11-25T02:31:11.436Z,96601.88
2023-11-25T02:37:33.440Z,96607.09
2023-11-25T02:42:57.292Z,96617.77
2023-11-25T02:48:02.199Z,96620.71
2023-11-25T02:53:06.047Z,96619.21
2023-11-25T02:58:09.418Z,96632.15
2023-11-25T03:04:11.586Z,96635.05
2023-11-25T03:09:35.002Z,96642.80
2023-11-25T03:14:37.180Z,96643.55
2023-11-25T03:19:40.236Z,96644.89
2023-11-25T03:24:42.839Z,96644.89
2023-11-25T03:29:45.073Z,96644.06
2023-11-25T03:35:47.198Z,96645.43
2023-11-25T03:42:09.068Z,96654.92
2023-11-25T03:48:30.992Z,96664.42
2023-11-25T03:54:52.954Z,96674.41
2023-11-25T04:00:16.491Z,96681.36
2023-11-25T04:05:19.247Z,96694.44
2023-11-25T04:10:21.665Z,96704.05
2023-11-25T04:15:23.937Z,96707.42
2023-11-25T04:20:30.274Z,96718.80
2023-11-25T04:26:13.606Z,96732.95
2023-11-25T04:32:39.470Z,96742.63
2023-11-25T04:39:05.872Z,96759.02
2023-11-25T04:44:29.227Z,96774.73
2023-11-25T04:50:46.256Z,96793.04
2023-11-25T04:57:08.357Z,96808.30
2023-11-25T05:03:30.301Z,96815.65
2023-11-25T05:09:52.550Z,96812.57
2023-11-25T05:16:14.790Z,96825.90
2023-11-25T05:22:12.754Z,96837.43
2023-11-25T05:27:15.021Z,96851.33
2023-11-25T05:32:17.729Z,96864.55
2023-11-25T05:37:42.263Z,96883.33
2023-11-25T05:42:50.128Z,96889.34
2023-11-25T05:47:52.897Z,96897.65
2023-11-25T05:52:57.977Z,96904.08
2023-11-25T05:58:01.114Z,96909.30
2023-11-25T06:03:05.716Z,96905.73
2023-11-25T06:08:10.627Z,96914.83
2023-11-25T06:13:18.325Z,96925.99
2023-11-25T06:18:23.680Z,96936.44
2023-11-25T06:23:26.545Z,96949.76
2023-11-25T06:28:49.233Z,96954.36
2023-11-25T06:33:59.910Z,96958.84
2023-11-25T06:40:02.162Z,96969.81
2023-11-25T06:46:24.316Z,96989.30
2023-11-25T06:52:47.726Z,97004.98
2023-11-25T06:59:09.681Z,97014.77
2023-11-25T07:05:31.589Z,97034.30
2023-11-25T07:11:53.520Z,97045.39
2023-11-25T07:18:15.493Z,97060.02
2023-11-25T07:24:37.381Z,97064.84
2023-11-25T07:30:04.390Z,97072.75
2023-11-25T07:35:09.195Z,97081.01
2023-11-25T07:40:17.104Z,97080.30
2023-11-25T07:45:20.003Z,97081.30
2023-11-25T07:50:23.430Z,97083.65
2023-11-25T07:55:26.370Z,97090.10
2023-11-25T08:00:29.465Z,97106.30
2023-11-25T08:05:31.960Z,97109.77
2023-11-25T08:10:36.799Z,97112.45
2023-11-25T08:16:42.203Z,97116.87
2023-11-25T08:22:04.998Z,97126.42
2023-11-25T08:27:08.336Z,97137.75
2023-11-25T08:33:10.638Z,97149.11
2023-11-25T08:39:32.568Z,97153.70
2023-11-25T08:46:04.784Z,97156.17
2023-11-25T08:52:26.844Z,97160.13
2023-11-25T08:59:08.855Z,97164.42
2023-11-25T09:05:30.922Z,97157.73
2023-11-25T09:11:52.910Z,97166.21
2023-11-25T09:17:16.934Z,97173.14
2023-11-25T09:22:22.081Z,97168.61
2023-11-25T09:27:25.169Z,97179.58
2023-11-25T09:32:47.730Z,97188.56
2023-11-25T09:37:51.999Z,97183.25
2023-11-25T09:42:56.294Z,97189.16
2023-11-25T09:47:59.364Z,97189.91
2023-11-25T09:53:31.421Z,97186.07
2023-11-25T09:58:36.237Z,97179.11
2023-11-25T10:04:38.697Z,97180.33
2023-11-25T10:10:25.596Z,97184.84
2023-11-25T10:16:30.899Z,97183.86
2023-11-25T10:21:59.621Z,97194.21
2023-11-25T10:28:09.231Z,97201.12
2023-11-25T10:35:13.190Z,97199.67
2023-11-25T10:42:17.114Z,97195.69
2023-11-25T10:49:21.089Z,97197.83
2023-11-25T10:56:25.961Z,97206.25
2023-11-25T11:03:32.680Z,97208.72
2023-11-25T11:10:40.014Z,97214.06
2023-11-25T11:17:50.099Z,97213.73
2023-11-25T11:24:53.912Z,97218.04
2023-11-25T11:32:04.497Z,97212.55
2023-11-25T11:39:05.111Z,97213.79
2023-11-25T11:46:14.816Z,97207.08
2023-11-25T11:53:18.588Z,97205.27
2023-11-25T12:00:40.695Z,97210.27
2023-11-25T12:07:44.533Z,97215.75
2023-11-25T12:14:33.646Z,97215.09
2023-11-25T12:21:37.261Z,97205.70
2023-11-25T12:28:54.282Z,97208.57
2023-11-25T12:35:58.246Z,97209.61
2023-11-25T12:42:52.034Z,97207.95
2023-11-25T12:50:01.242Z,97211.10
2023-11-25T12:57:05.091Z,97213.40
2023-11-25T13:04:09.942Z,97225.62
2023-11-25T13:11:13.784Z,97233.13
2023-11-25T13:18:18.505Z,97231.02
2023-11-25T13:25:22.550Z,97235.85
2023-11-25T13:32:17.410Z,97233.95
2023-11-25T13:39:21.413Z,97241.61
2023-11-25T13:46:18.367Z,97249.61
2023-11-25T13:53:28.261Z,97257.16
2023-11-25T14:00:32.210Z,97258.77
2023-11-25T14:07:36.022Z,97259.64
2023-11-25T14:14:30.385Z,97263.67
2023-11-25T14:21:28.669Z,97266.45
2023-11-25T14:28:24.822Z,97268.42
2023-11-25T14:35:28.567Z,97282.78
2023-11-25T14:42:12.674Z,97282.41
2023-11-25T14:49:16.594Z,97290.91
2023-11-25T14:56:10.189Z,97291.63
2023-11-25T15:03:14.231Z,97302.77
2023-11-25T15:10:18.155Z,97304.81
2023-11-25T15:17:21.911Z,97300.88
2023-11-25T15:24:26.298Z,97296.11
2023-11-25T15:31:34.292Z,97301.96
2023-11-25T15:38:37.983Z,97308.08
2023-11-25T15:45:31.405Z,97314.73
2023-11-25T15:52:38.431Z,97318.99
2023-11-25T15:59:42.860Z,97318.65
2023-11-25T16:06:37.330Z,97312.30
2023-11-25T16:13:41.226Z,97309.53
2023-11-25T16:20:45.263Z,97303.70
2023-11-25T16:27:49.038Z,97303.72
2023-11-25T16:34:42.524Z,97308.33
2023-11-25T16:41:46.494Z,97311.17
2023-11-25T16:48:53.870Z,97311.81
2023-11-25T16:56:03.153Z,97316.64
2023-11-25T17:03:06.083Z,97314.69
2023-11-25T17:10:10.280Z,97317.46
2023-11-25T17:17:07.117Z,97323.38
2023-11-25T17:24:10.921Z,97335.00
2023-11-25T17:31:15.041Z,97338.81
2023-11-25T17:38:18.668Z,97331.58
2023-11-25T17:45:22.486Z,97333.14
2023-11-25T17:52:26.451Z,97332.34
2023-11-25T17:59:30.395Z,97337.85
2023-11-25T18:06:34.322Z,97341.00
2023-11-25T18:13:28.017Z,97342.79
2023-11-25T18:20:32.175Z,97344.98
2023-11-25T18:27:23.166Z,97342.44
2023-11-25T18:34:27.255Z,97343.45
2023-11-25T18:41:21.632Z,97342.73
2023-11-25T18:48:21.977Z,97345.41
2023-11-25T18:55:25.713Z,97352.65
2023-11-25T19:02:45.636Z,97352.96
2023-11-25T19:10:02.720Z,97350.80
2023-11-25T19:17:07.230Z,97348.88
2023-11-25T19:24:11.326Z,97342.98
2023-11-25T19:31:15.970Z,97337.45
2023-11-25T19:38:12.880Z,97346.27
2023-11-25T19:45:09.668Z,97357.58
2023-11-25T19:52:13.695Z,97360.07
2023-11-25T19:59:17.585Z,97357.61
2023-11-25T20:06:21.971Z,97356.86
2023-11-25T20:13:27.533Z,97361.35
2023-11-25T20:20:23.900Z,97370.05
2023-11-25T20:27:33.163Z,97379.66
2023-11-25T20:34:33.720Z,97374.36
2023-11-25T20:41:27.393Z,97383.80
2023-11-25T20:48:21.435Z,97378.54
2023-11-25T20:55:18.317Z,97381.58
2023-11-25T21:02:22.898Z,97377.30
2023-11-25T21:09:27.198Z,97373.23
2023-11-25T21:16:30.980Z,97375.85
2023-11-25T21:23:35.304Z,97378.16
2023-11-25T21:30:39.730Z,97378.64
2023-11-25T21:37:46.115Z,97372.70
2023-11-25T21:44:43.683Z,97374.09
2023-11-25T21:51:48.086Z,97386.48
2023-11-25T21:58:24.497Z,97396.12
2023-11-25T22:05:31.391Z,97399.48
2023-11-25T22:12:35.433Z,97394.58
2023-11-25T22:19:39.289Z,97399.44
2023-11-25T22:26:56.867Z,97401.33
2023-11-25T22:34:00.713Z,97404.03
2023-11-25T22:41:04.526Z,97405.39
2023-11-25T22:48:02.020Z,97404.84
2023-11-25T22:55:05.926Z,97405.91
2023-11-25T23:02:10.290Z,97407.77
2023-11-25T23:09:04.900Z,97403.04
2023-11-25T23:16:10.880Z,97400.84
2023-11-25T23:23:07.332Z,97405.07
2023-11-25T23:30:11.251Z,97409.42
2023-11-25T23:37:05.242Z,97411.05
2023-11-25T23:44:06.684Z,97405.63
2023-11-25T23:51:10.524Z,97406.84
2023-11-25T23:58:14.257Z,97403.23
